createdAt,value
2023-02-11T00:00:15.777Z,102515.81
2023-02-11T00:02:42.236Z,102515.75
2023-02-11T00:05:08.738Z,102508.63
2023-02-11T00:07:35.229Z,102512.16
2023-02-11T00:10:02.975Z,102508.66
2023-02-11T00:12:29.465Z,102502.47
2023-02-11T00:14:56.005Z,102498.94
2023-02-11T00:17:22.408Z,102502.47
2023-02-11T00:19:52.058Z,102486.56
2023-02-11T00:22:18.515Z,102483.03
2023-02-11T00:24:44.974Z,102484.78
2023-02-11T00:27:11.374Z,102485.69
2023-02-11T00:29:38.159Z,102490.09
2023-02-11T00:32:05.361Z,102488.31
2023-02-11T00:34:32.258Z,102484.72
2023-02-11T00:36:58.799Z,102486.56
2023-02-11T00:39:25.222Z,102476.81
2023-02-11T00:41:51.656Z,102477.66
2023-02-11T00:44:18.128Z,102478.53
2023-02-11T00:46:44.586Z,102484.72
2023-02-11T00:49:11.112Z,102482.94
2023-02-11T00:51:37.535Z,102487.37
2023-02-11T00:54:04.055Z,102485.56
2023-02-11T00:56:30.450Z,102483.91
2023-02-11T00:58:56.891Z,102473.25
2023-02-11T01:01:25.682Z,102464.41
2023-02-11T01:03:52.191Z,102469.69
2023-02-11T01:06:18.632Z,102466.09
2023-02-11T01:08:45.063Z,102457.19
2023-02-11T01:11:15.717Z,102453.63
2023-02-11T01:13:42.524Z,102445.69
2023-02-11T01:16:09.121Z,102444.81
2023-02-11T01:18:35.562Z,102439.56
2023-02-11T01:21:01.962Z,102438.69
2023-02-11T01:23:28.364Z,102428.91
2023-02-11T01:25:54.835Z,102428.06
2023-02-11T01:28:22.347Z,102428.12
2023-02-11T01:30:48.888Z,102422.81
2023-02-11T01:33:15.421Z,102418.41
2023-02-11T01:35:41.851Z,102416.63
2023-02-11T01:38:08.467Z,102421.06
2023-02-11T01:40:34.916Z,102419.31
2023-02-11T01:43:01.358Z,102413.09
2023-02-11T01:45:49.536Z,102413.94
2023-02-11T01:48:20.928Z,102412.19
2023-02-11T01:50:47.692Z,102424.59
2023-02-11T01:53:32.797Z,102422.00
2023-02-11T01:56:17.872Z,102417.53
2023-02-11T01:58:44.417Z,102416.63
2023-02-11T02:01:11.449Z,102411.31
2023-02-11T02:03:37.947Z,102413.03
2023-02-11T02:06:06.558Z,102413.03
2023-02-11T02:08:36.165Z,102416.53
2023-02-11T02:11:02.764Z,102412.94
2023-02-11T02:13:30.317Z,102417.38
2023-02-11T02:16:09.650Z,102410.31
2023-02-11T02:18:36.384Z,102418.31
2023-02-11T02:21:02.825Z,102417.38
2023-02-11T02:23:32.094Z,102421.84
2023-02-11T02:26:10.638Z,102416.56
2023-02-11T02:28:43.154Z,102417.44
2023-02-11T02:31:16.582Z,102413.94
2023-02-11T02:33:52.146Z,102415.72
2023-02-11T02:36:22.493Z,102405.06
2023-02-11T02:38:58.362Z,102405.06
2023-02-11T02:41:34.419Z,102399.72
2023-02-11T02:44:03.891Z,102405.91
2023-02-11T02:46:33.531Z,102402.34
2023-02-11T02:49:00.311Z,102403.22
2023-02-11T02:51:29.772Z,102405.00
2023-02-11T02:54:15.302Z,102405.87
2023-02-11T02:56:46.244Z,102405.87
2023-02-11T02:59:24.881Z,102401.44
2023-02-11T03:02:10.981Z,102402.44
2023-02-11T03:04:47.972Z,102384.81
2023-02-11T03:07:20.157Z,102399.16
2023-02-11T03:10:07.993Z,102390.47
2023-02-11T03:12:34.460Z,102395.94
2023-02-11T03:15:01.438Z,102390.88
2023-02-11T03:17:28.009Z,102385.75
2023-02-11T03:19:54.427Z,102386.81
2023-02-11T03:22:22.323Z,102384.34
2023-02-11T03:24:48.767Z,102387.16
2023-02-11T03:27:15.161Z,102374.00
2023-02-11T03:29:51.649Z,102369.78
2023-02-11T03:32:18.169Z,102366.44
2023-02-11T03:34:59.902Z,102373.69
2023-02-11T03:37:31.108Z,102369.41
2023-02-11T03:40:00.086Z,102373.97
2023-02-11T03:42:27.202Z,102362.56
2023-02-11T03:44:54.373Z,102361.72
2023-02-11T03:47:21.586Z,102355.53
2023-02-11T03:49:48.225Z,102354.63
2023-02-11T03:52:14.638Z,102348.41
2023-02-11T03:54:41.723Z,102342.13
2023-02-11T03:57:08.335Z,102334.06
2023-02-11T03:59:49.505Z,102332.22
2023-02-11T04:02:15.970Z,102330.34
2023-02-11T04:04:42.458Z,102330.84
2023-02-11T04:07:09.410Z,102319.81
2023-02-11T04:09:36.883Z,102323.88
2023-02-11T04:12:03.362Z,102312.84
2023-02-11T04:14:29.772Z,102304.44
2023-02-11T04:16:56.219Z,102301.47
2023-02-11T04:19:22.641Z,102295.00
2023-02-11T04:21:49.136Z,102301.06
2023-02-11T04:24:15.627Z,102292.97
2023-02-11T04:26:42.066Z,102299.09
2023-02-11T04:29:08.498Z,102298.16
2023-02-11T04:31:34.962Z,102301.59
2023-02-11T04:34:01.369Z,102299.59
2023-02-11T04:36:27.806Z,102300.31
2023-02-11T04:38:54.239Z,102303.72
2023-02-11T04:41:20.620Z,102305.44
2023-02-11T04:43:47.057Z,102299.19
2023-02-11T04:46:13.584Z,102303.56
2023-02-11T04:48:40.125Z,102297.28
2023-02-11T04:51:06.571Z,102302.56
2023-02-11T04:53:32.995Z,102294.56
2023-02-11T04:55:59.525Z,102298.09
2023-02-11T04:58:25.988Z,102295.31
2023-02-11T05:00:52.416Z,102297.84
2023-02-11T05:03:18.894Z,102299.47
2023-02-11T05:05:48.005Z,102294.00
2023-02-11T05:08:14.448Z,102302.75
2023-02-11T05:10:40.836Z,102301.75
2023-02-11T05:13:07.341Z,102305.28
2023-02-11T05:15:33.783Z,102311.47
2023-02-11T05:18:00.210Z,102302.62
2023-02-11T05:20:26.652Z,102311.47
2023-02-11T05:22:53.054Z,102309.72
2023-02-11T05:25:20.374Z,102305.31
2023-02-11T05:27:46.791Z,102302.69
2023-02-11T05:30:13.325Z,102304.53
2023-02-11T05:32:40.122Z,102304.59
2023-02-11T05:35:06.592Z,102295.69
2023-02-11T05:37:33.233Z,102293.94
2023-02-11T05:39:59.702Z,102289.50
2023-02-11T05:42:26.101Z,102292.16
2023-02-11T05:44:52.484Z,102284.97
2023-02-11T05:47:18.877Z,102280.38
2023-02-11T05:49:45.381Z,102283.81
2023-02-11T05:52:11.790Z,102280.16
2023-02-11T05:54:38.238Z,102282.75
2023-02-11T05:57:04.685Z,102283.56
2023-02-11T05:59:31.102Z,102288.81
2023-02-11T06:01:57.498Z,102291.47
2023-02-11T06:04:23.910Z,102287.94
2023-02-11T06:06:50.299Z,102288.81
2023-02-11T06:09:16.704Z,102295.94
2023-02-11T06:11:43.092Z,102297.72
2023-02-11T06:14:11.025Z,102302.16
2023-02-11T06:16:37.561Z,102295.06
2023-02-11T06:19:04.188Z,102290.59
2023-02-11T06:21:42.857Z,102287.94
2023-02-11T06:24:10.129Z,102286.09
2023-02-11T06:26:36.544Z,102280.75
2023-02-11T06:29:03.092Z,102277.16
2023-02-11T06:31:29.621Z,102276.28
2023-02-11T06:33:56.351Z,102278.88
2023-02-11T06:36:22.938Z,102274.41
2023-02-11T06:38:49.456Z,102275.28
2023-02-11T06:41:16.444Z,102284.16
2023-02-11T06:43:43.027Z,102280.56
2023-02-11T06:46:09.463Z,102285.00
2023-02-11T06:48:35.994Z,102279.62
2023-02-11T06:51:03.937Z,102279.62
2023-02-11T06:53:30.425Z,102274.28
2023-02-11T06:55:56.808Z,102277.81
2023-02-11T06:58:23.233Z,102264.50
2023-02-11T07:00:49.648Z,102275.16
2023-02-11T07:03:16.111Z,102267.16
2023-02-11T07:05:42.948Z,102265.31
2023-02-11T07:08:09.416Z,102261.78
2023-02-11T07:10:38.740Z,102259.97
2023-02-11T07:13:05.203Z,102263.53
2023-02-11T07:15:31.738Z,102268.88
2023-02-11T07:17:58.196Z,102272.41
2023-02-11T07:20:24.765Z,102264.41
2023-02-11T07:22:51.179Z,102257.28
2023-02-11T07:25:17.651Z,102256.38
2023-02-11T07:27:44.070Z,102266.16
2023-02-11T07:30:10.912Z,102258.09
2023-02-11T07:32:37.428Z,102266.09
2023-02-11T07:35:04.218Z,102270.50
2023-02-11T07:37:30.667Z,102260.75
2023-02-11T07:39:57.052Z,102247.41
2023-02-11T07:42:23.462Z,102257.16
2023-02-11T07:44:52.314Z,102248.28
2023-02-11T07:47:19.101Z,102250.84
2023-02-11T07:49:45.737Z,102249.03
2023-02-11T07:52:12.178Z,102245.47
2023-02-11T07:54:38.795Z,102234.81
2023-02-11T07:57:05.220Z,102231.25
2023-02-11T07:59:31.635Z,102236.59
2023-02-11T08:01:58.076Z,102233.87
2023-02-11T08:04:24.571Z,102228.56
2023-02-11T08:06:52.887Z,102232.97
2023-02-11T08:09:20.771Z,102231.09
2023-02-11T08:11:47.206Z,102235.53
2023-02-11T08:14:13.617Z,102232.91
2023-02-11T08:16:40.128Z,102222.22
2023-02-11T08:19:07.848Z,102237.28
2023-02-11T08:21:34.281Z,102233.75
2023-02-11T08:24:01.331Z,102241.69
2023-02-11T08:26:28.889Z,102229.22
2023-02-11T08:28:55.709Z,102234.53
2023-02-11T08:31:25.894Z,102227.41
2023-02-11T08:33:53.323Z,102230.94
2023-02-11T08:36:23.789Z,102224.72
2023-02-11T08:38:50.256Z,102235.34
2023-02-11T08:41:16.739Z,102234.41
2023-02-11T08:43:43.657Z,102229.94
2023-02-11T08:46:12.007Z,102232.59
2023-02-11T08:48:38.448Z,102229.00
2023-02-11T08:51:08.545Z,102221.00
2023-02-11T08:53:37.165Z,102218.28
2023-02-11T08:58:29.934Z,102228.84
2023-02-11T09:00:56.352Z,102222.59
2023-02-11T09:03:22.812Z,102215.66
2023-02-11T09:05:50.206Z,102226.53
2023-02-11T09:08:16.856Z,102217.09
2023-02-11T09:10:43.420Z,102212.06
2023-02-11T09:13:10.012Z,102206.19
2023-02-11T09:15:36.549Z,102208.16
2023-02-11T09:18:03.486Z,102203.88
2023-02-11T09:20:29.970Z,102209.28
2023-02-11T09:22:56.952Z,102211.16
2023-02-11T09:25:23.467Z,102210.38
2023-02-11T09:27:51.397Z,102213.91
2023-02-11T09:30:17.860Z,102196.00
2023-02-11T09:32:44.352Z,102193.19
2023-02-11T09:35:10.824Z,102185.94
2023-02-11T09:37:37.546Z,102188.47
2023-02-11T09:40:04.229Z,102190.16
2023-02-11T09:42:51.433Z,102183.88
2023-02-11T09:45:29.731Z,102181.09
2023-02-11T09:48:06.173Z,102181.00
2023-02-11T09:50:34.519Z,102186.28
2023-02-11T09:53:10.992Z,102179.16
2023-02-11T09:55:42.787Z,102178.13
2023-02-11T09:58:21.425Z,102169.22
2023-02-11T10:01:08.176Z,102170.91
2023-02-11T10:03:38.752Z,102166.47
2023-02-11T10:06:24.054Z,102169.06
2023-02-11T10:08:53.591Z,102170.06
2023-02-11T10:11:30.864Z,102176.41
2023-02-11T10:14:16.693Z,102168.53
2023-02-11T10:16:43.235Z,102160.69
2023-02-11T10:19:14.123Z,102152.84
2023-02-11T10:21:47.778Z,102160.03
2023-02-11T10:24:14.388Z,102154.00
2023-02-11T10:26:40.878Z,102142.47
2023-02-11T10:29:33.618Z,102132.81
2023-02-11T10:32:00.582Z,102134.59
2023-02-11T10:34:27.164Z,102129.28
2023-02-11T10:36:53.635Z,102131.09
2023-02-11T10:39:20.133Z,102135.47
2023-02-11T10:41:47.748Z,102126.59
2023-02-11T10:44:25.823Z,102127.47
2023-02-11T10:46:52.344Z,102118.63
2023-02-11T10:49:38.511Z,102117.75
2023-02-11T10:52:13.953Z,102101.84
2023-02-11T10:54:40.442Z,102107.09
2023-02-11T10:57:07.528Z,102100.91
2023-02-11T10:59:39.913Z,102105.28
2023-02-11T11:02:18.000Z,102107.87
2023-02-11T11:04:45.157Z,102100.75
2023-02-11T11:07:16.377Z,102090.16
2023-02-11T11:09:48.955Z,102091.91
2023-02-11T11:12:35.184Z,102093.63
2023-02-11T11:15:03.192Z,102092.78
2023-02-11T11:17:29.701Z,102080.31
2023-02-11T11:20:36.334Z,102071.41
2023-02-11T11:23:10.606Z,102065.19
2023-02-11T11:25:37.990Z,102074.13
2023-02-11T11:28:04.520Z,102061.72
2023-02-11T11:30:34.731Z,102050.19
2023-02-11T11:33:01.214Z,102054.69
2023-02-11T11:35:28.749Z,102051.22
2023-02-11T11:37:56.059Z,102061.00
2023-02-11T11:40:29.366Z,102039.75
2023-02-11T11:43:25.261Z,102031.81
2023-02-11T11:45:58.234Z,102020.28
2023-02-11T11:48:30.731Z,102020.31
2023-02-11T11:51:01.490Z,102022.97
2023-02-11T11:53:34.403Z,102012.44
2023-02-11T11:56:02.850Z,102020.47
2023-02-11T11:58:29.643Z,102024.91
2023-02-11T12:01:32.091Z,102020.53
2023-02-11T12:04:16.975Z,102017.91
2023-02-11T12:06:46.165Z,102013.47
2023-02-11T12:09:31.620Z,102007.34
2023-02-11T12:12:17.044Z,101988.72
2023-02-11T12:14:46.921Z,101967.47
2023-02-11T12:17:19.637Z,101976.41
2023-02-11T12:20:05.271Z,101964.94
2023-02-11T12:22:41.321Z,101955.25
2023-02-11T12:25:16.892Z,101948.25
2023-02-11T12:27:48.268Z,101940.28
2023-02-11T12:30:14.700Z,101935.94
2023-02-11T12:32:44.108Z,101938.66
2023-02-11T12:35:20.234Z,101936.03
2023-02-11T12:37:56.109Z,101931.66
2023-02-11T12:40:34.757Z,101931.72
2023-02-11T12:43:16.942Z,101921.19
2023-02-11T12:45:44.992Z,101928.31
2023-02-11T12:48:14.401Z,101917.69
2023-02-11T12:51:00.099Z,101924.81
2023-02-11T12:53:44.657Z,101916.03
2023-02-11T12:56:24.769Z,101919.62
2023-02-11T12:58:51.829Z,101917.03
2023-02-11T13:01:18.293Z,101911.72
2023-02-11T13:03:57.193Z,101903.81
2023-02-11T13:06:32.384Z,101900.22
2023-02-11T13:09:02.649Z,101906.47
2023-02-11T13:11:37.428Z,101913.66
2023-02-11T13:14:15.472Z,101903.03
2023-02-11T13:16:45.813Z,101898.63
2023-02-11T13:19:21.453Z,101895.19
2023-02-11T13:21:57.314Z,101891.63
2023-02-11T13:24:29.362Z,101889.00
2023-02-11T13:26:58.608Z,101885.53
2023-02-11T13:29:43.978Z,101874.06
2023-02-11T13:32:13.983Z,101870.53
2023-02-11T13:34:43.312Z,101859.94
2023-02-11T13:37:22.715Z,101870.66
2023-02-11T13:39:59.069Z,101871.56
2023-02-11T13:42:25.656Z,101868.09
2023-02-11T13:44:54.527Z,101865.53
2023-02-11T13:47:41.244Z,101861.13
2023-02-11T13:50:08.420Z,101866.44
2023-02-11T13:52:37.341Z,101872.69
2023-02-11T13:55:06.941Z,101863.00
2023-02-11T13:57:34.007Z,101868.38
2023-02-11T14:00:19.205Z,101864.00
2023-02-11T14:03:04.355Z,101872.94
2023-02-11T14:05:50.180Z,101881.88
2023-02-11T14:08:38.465Z,101874.81
2023-02-11T14:11:12.398Z,101875.78
2023-02-11T14:13:47.972Z,101860.75
2023-02-11T14:16:20.415Z,101852.78
2023-02-11T14:18:55.002Z,101846.66
2023-02-11T14:21:22.096Z,101853.78
2023-02-11T14:23:48.778Z,101854.66
2023-02-11T14:26:21.268Z,101860.03
2023-02-11T14:29:10.635Z,101869.81
2023-02-11T14:31:43.024Z,101873.41
2023-02-11T14:34:28.573Z,101874.31
2023-02-11T14:37:27.523Z,101873.47
2023-02-11T14:40:15.027Z,101877.94
2023-02-11T14:42:41.532Z,101868.22
2023-02-11T14:45:09.124Z,101883.34
2023-02-11T14:47:50.431Z,101878.94
2023-02-11T14:50:23.237Z,101881.59
2023-02-11T14:52:49.703Z,101880.78
2023-02-11T14:55:18.931Z,101872.81
2023-02-11T14:57:45.856Z,101863.09
2023-02-11T15:00:17.090Z,101860.47
2023-02-11T15:02:45.926Z,101852.50
2023-02-11T15:05:26.186Z,101851.63
2023-02-11T15:07:53.472Z,101849.88
2023-02-11T15:10:22.560Z,101845.50
2023-02-11T15:12:49.288Z,101839.31
2023-02-11T15:15:15.718Z,101832.28
2023-02-11T15:17:42.179Z,101829.69
2023-02-11T15:20:14.568Z,101827.03
2023-02-11T15:22:41.211Z,101825.28
2023-02-11T15:25:08.098Z,101824.38
2023-02-11T15:27:38.677Z,101825.28
2023-02-11T15:30:16.362Z,101827.94
2023-02-11T15:32:43.646Z,101831.50
2023-02-11T15:35:10.968Z,101822.66
2023-02-11T15:37:37.405Z,101824.44
2023-02-11T15:40:11.157Z,101815.53
2023-02-11T15:42:52.438Z,101818.25
2023-02-11T15:45:19.496Z,101807.69
2023-02-11T15:47:49.509Z,101805.91
2023-02-11T15:50:22.679Z,101799.72
2023-02-11T15:52:49.176Z,101799.72
2023-02-11T15:55:15.711Z,101803.31
2023-02-11T15:57:43.518Z,101805.97
2023-02-11T16:00:19.424Z,101804.22
2023-02-11T16:02:45.957Z,101801.56
2023-02-11T16:05:25.852Z,101795.34
2023-02-11T16:07:52.366Z,101790.94
2023-02-11T16:10:27.271Z,101790.94
2023-02-11T16:13:04.449Z,101786.56
2023-02-11T16:15:38.328Z,101778.56
2023-02-11T16:18:05.874Z,101786.56
2023-02-11T16:20:34.609Z,101785.72
2023-02-11T16:23:01.346Z,101782.16
2023-02-11T16:25:27.772Z,101777.78
2023-02-11T16:27:54.234Z,101776.94
2023-02-11T16:30:26.248Z,101778.66
2023-02-11T16:32:53.119Z,101768.09
2023-02-11T16:35:19.587Z,101768.09
2023-02-11T16:37:46.049Z,101777.84
2023-02-11T16:40:13.031Z,101779.63
2023-02-11T16:42:39.848Z,101779.72
2023-02-11T16:45:06.788Z,101776.13
2023-02-11T16:47:35.351Z,101777.94
2023-02-11T16:50:02.094Z,101781.50
2023-02-11T16:52:31.365Z,101774.41
2023-02-11T16:54:58.301Z,101769.16
2023-02-11T16:57:25.038Z,101762.06
2023-02-11T16:59:52.170Z,101777.16
2023-02-11T17:02:22.875Z,101780.66
2023-02-11T17:04:50.428Z,101777.19
2023-02-11T17:07:16.845Z,101775.41
2023-02-11T17:09:43.292Z,101781.66
2023-02-11T17:12:09.685Z,101781.66
2023-02-11T17:14:36.193Z,101786.09
2023-02-11T17:17:02.707Z,101779.03
2023-02-11T17:19:29.126Z,101783.44
2023-02-11T17:21:55.526Z,101784.34
2023-02-11T17:24:22.142Z,101779.03
2023-02-11T17:26:48.750Z,101779.03
2023-02-11T17:29:16.843Z,101788.81
2023-02-11T17:31:43.313Z,101791.41
2023-02-11T17:34:09.814Z,101792.38
2023-02-11T17:36:36.660Z,101792.38
2023-02-11T17:39:04.403Z,101788.88
2023-02-11T17:41:32.279Z,101788.00
2023-02-11T17:43:58.845Z,101796.00
2023-02-11T17:46:25.285Z,101791.59
2023-02-11T17:48:53.255Z,101777.44
2023-02-11T17:51:23.513Z,101788.06
2023-02-11T17:53:49.905Z,101788.94
2023-02-11T17:56:16.328Z,101779.22
2023-02-11T17:58:42.779Z,101781.88
2023-02-11T18:01:09.288Z,101767.75
2023-02-11T18:03:35.740Z,101762.44
2023-02-11T18:06:02.462Z,101761.56
2023-02-11T18:08:28.937Z,101755.37
2023-02-11T18:10:55.477Z,101762.50
2023-02-11T18:13:21.951Z,101750.12
2023-02-11T18:15:48.476Z,101753.66
2023-02-11T18:18:15.028Z,101755.44
2023-02-11T18:20:45.487Z,101758.97
2023-02-11T18:23:12.122Z,101753.72
2023-02-11T18:25:41.392Z,101753.72
2023-02-11T18:28:07.981Z,101749.28
2023-02-11T18:30:34.582Z,101742.22
2023-02-11T18:33:01.283Z,101743.09
2023-02-11T18:35:27.802Z,101751.06
2023-02-11T18:37:54.250Z,101741.31
2023-02-11T18:40:20.684Z,101744.88
2023-02-11T18:42:47.176Z,101744.91
2023-02-11T18:45:15.029Z,101750.22
2023-02-11T18:47:41.465Z,101746.63
2023-02-11T18:50:08.320Z,101739.59
2023-02-11T18:52:38.448Z,101752.00
2023-02-11T18:55:10.468Z,101746.69
2023-02-11T18:57:36.918Z,101742.31
2023-02-11T19:00:03.752Z,101750.28
2023-02-11T19:02:30.370Z,101737.06
2023-02-11T19:04:56.857Z,101743.22
2023-02-11T19:07:23.443Z,101744.19
2023-02-11T19:09:49.824Z,101755.66
2023-02-11T19:12:16.260Z,101759.19
2023-02-11T19:14:42.709Z,101750.41
2023-02-11T19:17:11.889Z,101752.16
2023-02-11T19:19:38.477Z,101759.31
2023-02-11T19:22:09.179Z,101765.44
2023-02-11T19:24:37.237Z,101759.25
2023-02-11T19:27:04.414Z,101754.84
2023-02-11T19:29:33.472Z,101766.34
2023-02-11T19:31:59.896Z,101769.94
2023-02-11T19:34:26.487Z,101767.22
2023-02-11T19:36:54.426Z,101758.44
2023-02-11T19:39:21.017Z,101755.78
2023-02-11T19:41:47.410Z,101754.06
2023-02-11T19:44:13.960Z,101752.28
2023-02-11T19:46:43.612Z,101753.13
2023-02-11T19:49:11.065Z,101754.94
2023-02-11T19:51:39.419Z,101759.37
2023-02-11T19:54:06.423Z,101761.12
2023-02-11T19:56:32.960Z,101756.72
2023-02-11T19:58:59.443Z,101757.59
2023-02-11T20:01:26.086Z,101754.06
2023-02-11T20:03:52.997Z,101756.72
2023-02-11T20:06:20.380Z,101754.06
2023-02-11T20:08:46.928Z,101762.91
2023-02-11T20:11:16.623Z,101748.75
2023-02-11T20:13:43.034Z,101742.56
2023-02-11T20:16:10.638Z,101746.09
2023-02-11T20:18:37.254Z,101745.22
2023-02-11T20:21:09.966Z,101739.06
2023-02-11T20:23:38.284Z,101741.75
2023-02-11T20:26:08.292Z,101742.66
2023-02-11T20:28:34.781Z,101741.75
2023-02-11T20:31:01.371Z,101743.50
2023-02-11T20:33:29.859Z,101749.75
2023-02-11T20:36:00.087Z,101740.88
2023-02-11T20:38:26.709Z,101739.97
2023-02-11T20:40:53.248Z,101744.44
2023-02-11T20:43:19.825Z,101725.84
2023-02-11T20:45:46.340Z,101731.16
2023-02-11T20:48:12.852Z,101732.91
2023-02-11T20:50:39.284Z,101732.91
2023-02-11T20:53:05.749Z,101732.09
2023-02-11T20:55:32.162Z,101736.47
2023-02-11T20:57:58.661Z,101732.03
2023-02-11T21:00:25.106Z,101732.09
2023-02-11T21:02:51.898Z,101731.16
2023-02-11T21:05:18.473Z,101733.00
2023-02-11T21:07:44.961Z,101733.81
2023-02-11T21:10:11.585Z,101719.66
2023-02-11T21:12:38.014Z,101713.50
2023-02-11T21:15:05.558Z,101717.06
2023-02-11T21:17:32.021Z,101721.47
2023-02-11T21:19:58.450Z,101725.97
2023-02-11T21:22:24.876Z,101730.41
2023-02-11T21:24:51.327Z,101718.88
2023-02-11T21:27:17.756Z,101724.19
2023-02-11T21:29:53.707Z,101736.59
2023-02-11T21:32:21.128Z,101737.44
2023-02-11T21:34:47.569Z,101725.91
2023-02-11T21:37:14.073Z,101731.28
2023-02-11T21:39:42.441Z,101727.78
2023-02-11T21:42:08.959Z,101720.69
2023-02-11T21:44:35.388Z,101726.84
2023-02-11T21:47:01.830Z,101733.94
2023-02-11T21:49:29.106Z,101732.16
2023-02-11T21:51:55.501Z,101718.88
2023-02-11T21:54:23.962Z,101713.56
2023-02-11T21:56:50.433Z,101706.50
2023-02-11T21:59:17.981Z,101702.94
2023-02-11T22:01:44.925Z,101701.22
2023-02-11T22:04:11.548Z,101715.34
2023-02-11T22:06:38.293Z,101707.38
2023-02-11T22:09:05.631Z,101710.97
2023-02-11T22:11:32.199Z,101710.97
2023-02-11T22:13:59.237Z,101725.13
2023-02-11T22:16:25.926Z,101726.91
2023-02-11T22:18:52.533Z,101724.25
2023-02-11T22:21:19.860Z,101726.84
2023-02-11T22:23:46.292Z,101729.56
2023-02-11T22:26:19.971Z,101734.00
2023-02-11T22:28:46.475Z,101729.63
2023-02-11T22:31:13.765Z,101719.91
2023-02-11T22:33:40.364Z,101721.66
2023-02-11T22:36:07.701Z,101741.97
2023-02-11T22:38:34.342Z,101745.56
2023-02-11T22:41:01.130Z,101752.69
2023-02-11T22:43:27.684Z,101743.75
2023-02-11T22:45:56.461Z,101756.19
2023-02-11T22:48:23.300Z,101750.88
2023-02-11T22:50:49.776Z,101743.75
2023-02-11T22:53:16.153Z,101747.34
2023-02-11T22:55:42.588Z,101754.44
2023-02-11T22:58:09.014Z,101737.59
2023-02-11T23:00:38.666Z,101743.81
2023-02-11T23:03:05.386Z,101748.22
2023-02-11T23:05:31.881Z,101756.19
2023-02-11T23:07:58.383Z,101748.22
2023-02-11T23:10:24.790Z,101775.69
2023-02-11T23:12:51.156Z,101765.97
2023-02-11T23:15:17.590Z,101763.31
2023-02-11T23:17:44.015Z,101758.84
2023-02-11T23:20:10.693Z,101766.81
2023-02-11T23:22:37.090Z,101754.44
2023-02-11T23:25:03.578Z,101752.69
2023-02-11T23:27:32.313Z,101747.38
2023-02-11T23:29:58.804Z,101747.38
2023-02-11T23:32:25.362Z,101752.69
2023-02-11T23:34:52.716Z,101750.03
2023-02-11T23:37:19.183Z,101746.50
2023-02-11T23:39:45.614Z,101750.00
2023-02-11T23:42:12.076Z,101750.00
2023-02-11T23:44:38.517Z,101723.47
2023-02-11T23:47:04.924Z,101730.62
2023-02-11T23:49:31.352Z,101743.84
2023-02-11T23:51:57.771Z,101729.69
2023-02-11T23:54:24.162Z,101732.34
2023-02-11T23:56:50.541Z,101732.28
2023-02-11T23:59:17.117Z,101738.53
